sensor_id;sensor_type;location;lat;lon;timestamp;temperature;humidity
70867;HTU21D;58487;53.474;49.470;2023-11-21T00:00:34;0.14;92.32
70867;HTU21D;58487;53.474;49.470;2023-11-21T00:03:00;0.12;99.45
70867;HTU21D;58487;53.474;49.470;2023-11-21T00:05:26;0.16;93.09
70867;HTU21D;58487;53.474;49.470;2023-11-21T00:07:52;0.18;96.84
70867;HTU21D;58487;53.474;49.470;2023-11-21T00:10:18;0.19;89.23
70867;HTU21D;58487;53.474;49.470;2023-11-21T00:12:44;0.15;89.73
70867;HTU21D;58487;53.474;49.470;2023-11-21T00:15:10;0.15;94.57
70867;HTU21D;58487;53.474;49.470;2023-11-21T00:17:40;0.14;93.52
70867;HTU21D;58487;53.474;49.470;2023-11-21T00:20:07;0.06;93.34
70867;HTU21D;58487;53.474;49.470;2023-11-21T00:22:36;0.06;95.01
70867;HTU21D;58487;53.474;49.470;2023-11-21T00:25:02;0.05;90.34
70867;HTU21D;58487;53.474;49.470;2023-11-21T00:27:30;0.03;92.53
70867;HTU21D;58487;53.474;49.470;2023-11-21T00:29:56;0.05;96.34
70867;HTU21D;58487;53.474;49.470;2023-11-21T00:32:22;0.01;102.57
70867;HTU21D;58487;53.474;49.470;2023-11-21T00:34:48;0.03;91.39
70867;HTU21D;58487;53.474;49.470;2023-11-21T00:37:14;0.05;102.73
70867;HTU21D;58487;53.474;49.470;2023-11-21T00:39:40;-0.05;118.99
70867;HTU21D;58487;53.474;49.470;2023-11-21T00:42:07;-0.13;101.70
70867;HTU21D;58487;53.474;49.470;2023-11-21T00:44:34;0.07;100.73
70867;HTU21D;58487;53.474;49.470;2023-11-21T00:47:03;0.06;102.94
70867;HTU21D;58487;53.474;49.470;2023-11-21T00:49:29;0.02;103.79
70867;HTU21D;58487;53.474;49.470;2023-11-21T00:51:56;0.05;96.45
70867;HTU21D;58487;53.474;49.470;2023-11-21T00:54:23;0.10;91.52
70867;HTU21D;58487;53.474;49.470;2023-11-21T00:56:49;0.13;95.81
70867;HTU21D;58487;53.474;49.470;2023-11-21T00:59:15;0.12;100.41
70867;HTU21D;58487;53.474;49.470;2023-11-21T01:01:41;0.12;92.40
70867;HTU21D;58487;53.474;49.470;2023-11-21T01:04:07;0.10;91.34
70867;HTU21D;58487;53.474;49.470;2023-11-21T01:06:33;0.14;105.47
70867;HTU21D;58487;53.474;49.470;2023-11-21T01:08:59;0.13;105.96
70867;HTU21D;58487;53.474;49.470;2023-11-21T01:11:25;0.09;91.53
70867;HTU21D;58487;53.474;49.470;2023-11-21T01:13:52;0.10;90.91
70867;HTU21D;58487;53.474;49.470;2023-11-21T01:16:19;0.15;94.39
70867;HTU21D;58487;53.474;49.470;2023-11-21T01:18:45;0.07;100.03
70867;HTU21D;58487;53.474;49.470;2023-11-21T01:21:11;0.10;96.09
70867;HTU21D;58487;53.474;49.470;2023-11-21T01:23:37;0.16;99.77
70867;HTU21D;58487;53.474;49.470;2023-11-21T01:26:03;0.14;94.72
70867;HTU21D;58487;53.474;49.470;2023-11-21T01:28:29;0.14;99.32
70867;HTU21D;58487;53.474;49.470;2023-11-21T01:30:55;0.18;96.18
70867;HTU21D;58487;53.474;49.470;2023-11-21T01:33:22;0.18;91.43
70867;HTU21D;58487;53.474;49.470;2023-11-21T01:35:50;0.17;94.08
70867;HTU21D;58487;53.474;49.470;2023-11-21T01:38:19;0.15;92.91
70867;HTU21D;58487;53.474;49.470;2023-11-21T01:40:44;0.18;106.19
70867;HTU21D;58487;53.474;49.470;2023-11-21T01:43:10;0.19;111.83
70867;HTU21D;58487;53.474;49.470;2023-11-21T01:45:37;0.21;110.25
70867;HTU21D;58487;53.474;49.470;2023-11-21T01:48:03;0.20;108.37
70867;HTU21D;58487;53.474;49.470;2023-11-21T01:50:32;0.23;90.28
70867;HTU21D;58487;53.474;49.470;2023-11-21T01:52:59;0.21;96.22
70867;HTU21D;58487;53.474;49.470;2023-11-21T01:55:26;0.22;118.99
70867;HTU21D;58487;53.474;49.470;2023-11-21T01:57:54;0.08;118.99
70867;HTU21D;58487;53.474;49.470;2023-11-21T02:00:20;0.15;118.99
70867;HTU21D;58487;53.474;49.470;2023-11-21T02:02:47;0.20;94.15
70867;HTU21D;58487;53.474;49.470;2023-11-21T02:05:15;0.22;105.98
70867;HTU21D;58487;53.474;49.470;2023-11-21T02:07:44;0.27;89.96
70867;HTU21D;58487;53.474;49.470;2023-11-21T02:10:11;0.29;90.24
70867;HTU21D;58487;53.474;49.470;2023-11-21T02:12:45;0.31;90.04
70867;HTU21D;58487;53.474;49.470;2023-11-21T02:15:13;0.33;90.01
70867;HTU21D;58487;53.474;49.470;2023-11-21T02:17:49;0.34;91.20
70867;HTU21D;58487;53.474;49.470;2023-11-21T02:20:22;0.39;91.50
70867;HTU21D;58487;53.474;49.470;2023-11-21T02:22:54;0.34;101.97
70867;HTU21D;58487;53.474;49.470;2023-11-21T02:25:28;0.35;118.99
70867;HTU21D;58487;53.474;49.470;2023-11-21T02:27:54;0.39;89.50
70867;HTU21D;58487;53.474;49.470;2023-11-21T02:30:21;0.45;91.95
70867;HTU21D;58487;53.474;49.470;2023-11-21T02:32:51;0.47;89.50
70867;HTU21D;58487;53.474;49.470;2023-11-21T02:35:23;0.49;89.09
70867;HTU21D;58487;53.474;49.470;2023-11-21T02:37:52;0.53;89.24
70867;HTU21D;58487;53.474;49.470;2023-11-21T02:40:18;0.51;89.19
70867;HTU21D;58487;53.474;49.470;2023-11-21T02:42:44;0.54;89.68
70867;HTU21D;58487;53.474;49.470;2023-11-21T02:45:10;0.53;89.18
70867;HTU21D;58487;53.474;49.470;2023-11-21T02:47:38;0.59;94.92
70867;HTU21D;58487;53.474;49.470;2023-11-21T02:50:06;0.52;91.34
70867;HTU21D;58487;53.474;49.470;2023-11-21T02:52:34;0.58;88.71
70867;HTU21D;58487;53.474;49.470;2023-11-21T02:55:04;0.60;88.71
70867;HTU21D;58487;53.474;49.470;2023-11-21T02:57:31;0.60;89.10
70867;HTU21D;58487;53.474;49.470;2023-11-21T02:59:57;0.58;90.08
70867;HTU21D;58487;53.474;49.470;2023-11-21T03:02:23;0.58;88.92
70867;HTU21D;58487;53.474;49.470;2023-11-21T03:04:50;0.67;88.76
70867;HTU21D;58487;53.474;49.470;2023-11-21T03:07:17;0.66;88.66
70867;HTU21D;58487;53.474;49.470;2023-11-21T03:09:46;0.66;88.92
70867;HTU21D;58487;53.474;49.470;2023-11-21T03:12:12;0.69;88.44
70867;HTU21D;58487;53.474;49.470;2023-11-21T03:14:41;0.74;88.47
70867;HTU21D;58487;53.474;49.470;2023-11-21T03:17:08;0.72;88.54
70867;HTU21D;58487;53.474;49.470;2023-11-21T03:19:34;0.69;89.18
70867;HTU21D;58487;53.474;49.470;2023-11-21T03:22:00;0.68;89.53
70867;HTU21D;58487;53.474;49.470;2023-11-21T03:24:26;0.69;89.38
70867;HTU21D;58487;53.474;49.470;2023-11-21T03:26:52;0.74;89.67
70867;HTU21D;58487;53.474;49.470;2023-11-21T03:29:19;0.73;88.64
70867;HTU21D;58487;53.474;49.470;2023-11-21T03:31:45;0.69;88.96
70867;HTU21D;58487;53.474;49.470;2023-11-21T03:34:23;0.69;89.41
70867;HTU21D;58487;53.474;49.470;2023-11-21T03:36:50;0.74;89.21
70867;HTU21D;58487;53.474;49.470;2023-11-21T03:39:16;0.77;89.88
70867;HTU21D;58487;53.474;49.470;2023-11-21T03:41:43;0.77;93.67
70867;HTU21D;58487;53.474;49.470;2023-11-21T03:44:09;0.65;118.99
70867;HTU21D;58487;53.474;49.470;2023-11-21T03:46:36;0.60;104.51
70867;HTU21D;58487;53.474;49.470;2023-11-21T03:49:02;0.74;106.35
70867;HTU21D;58487;53.474;49.470;2023-11-21T03:51:28;0.73;108.27
70867;HTU21D;58487;53.474;49.470;2023-11-21T03:53:54;0.78;89.41
70867;HTU21D;58487;53.474;49.470;2023-11-21T03:56:20;0.80;118.99
70867;HTU21D;58487;53.474;49.470;2023-11-21T03:58:49;0.55;118.99
70867;HTU21D;58487;53.474;49.470;2023-11-21T04:01:22;0.60;118.99
70867;HTU21D;58487;53.474;49.470;2023-11-21T04:03:51;0.64;118.99
70867;HTU21D;58487;53.474;49.470;2023-11-21T04:06:17;0.59;118.99
70867;HTU21D;58487;53.474;49.470;2023-11-21T04:08:44;0.67;118.99
70867;HTU21D;58487;53.474;49.470;2023-11-21T04:11:11;0.71;118.99
70867;HTU21D;58487;53.474;49.470;2023-11-21T04:13:41;0.77;118.99
70867;HTU21D;58487;53.474;49.470;2023-11-21T04:16:08;0.69;118.99
70867;HTU21D;58487;53.474;49.470;2023-11-21T04:18:38;0.75;118.99
70867;HTU21D;58487;53.474;49.470;2023-11-21T04:21:05;0.75;118.99
70867;HTU21D;58487;53.474;49.470;2023-11-21T04:23:31;0.72;118.99
70867;HTU21D;58487;53.474;49.470;2023-11-21T04:25:57;0.74;118.99
70867;HTU21D;58487;53.474;49.470;2023-11-21T04:28:24;0.67;118.99
70867;HTU21D;58487;53.474;49.470;2023-11-21T04:30:50;0.75;118.99
70867;HTU21D;58487;53.474;49.470;2023-11-21T04:33:17;0.79;118.99
70867;HTU21D;58487;53.474;49.470;2023-11-21T04:35:43;0.77;118.99
70867;HTU21D;58487;53.474;49.470;2023-11-21T04:38:09;0.75;118.99
70867;HTU21D;58487;53.474;49.470;2023-11-21T04:40:35;0.79;118.99
70867;HTU21D;58487;53.474;49.470;2023-11-21T04:43:01;0.75;118.99
70867;HTU21D;58487;53.474;49.470;2023-11-21T04:45:27;0.72;118.99
70867;HTU21D;58487;53.474;49.470;2023-11-21T04:47:53;0.66;118.99
70867;HTU21D;58487;53.474;49.470;2023-11-21T04:50:19;0.77;118.99
70867;HTU21D;58487;53.474;49.470;2023-11-21T04:52:46;0.75;118.99
70867;HTU21D;58487;53.474;49.470;2023-11-21T04:55:12;0.76;118.99
70867;HTU21D;58487;53.474;49.470;2023-11-21T04:57:38;0.77;118.99
70867;HTU21D;58487;53.474;49.470;2023-11-21T05:00:05;0.79;118.99
70867;HTU21D;58487;53.474;49.470;2023-11-21T05:02:32;0.86;118.99
70867;HTU21D;58487;53.474;49.470;2023-11-21T05:05:00;0.79;118.99
70867;HTU21D;58487;53.474;49.470;2023-11-21T05:07:26;0.80;116.47
70867;HTU21D;58487;53.474;49.470;2023-11-21T05:09:55;0.69;118.99
70867;HTU21D;58487;53.474;49.470;2023-11-21T05:12:25;0.58;118.99
70867;HTU21D;58487;53.474;49.470;2023-11-21T05:14:51;0.69;118.99
70867;HTU21D;58487;53.474;49.470;2023-11-21T05:17:17;0.66;118.99
70867;HTU21D;58487;53.474;49.470;2023-11-21T05:19:43;0.72;118.99
70867;HTU21D;58487;53.474;49.470;2023-11-21T05:22:11;0.73;118.99
70867;HTU21D;58487;53.474;49.470;2023-11-21T05:24:38;0.68;118.99
70867;HTU21D;58487;53.474;49.470;2023-11-21T05:27:06;0.68;118.99
70867;HTU21D;58487;53.474;49.470;2023-11-21T05:29:32;0.63;118.99
70867;HTU21D;58487;53.474;49.470;2023-11-21T05:31:58;0.73;118.99
70867;HTU21D;58487;53.474;49.470;2023-11-21T05:34:24;0.75;118.99
70867;HTU21D;58487;53.474;49.470;2023-11-21T05:36:50;0.74;118.99
70867;HTU21D;58487;53.474;49.470;2023-11-21T05:39:16;0.76;118.99
70867;HTU21D;58487;53.474;49.470;2023-11-21T05:41:46;0.74;118.99
70867;HTU21D;58487;53.474;49.470;2023-11-21T05:44:12;0.66;118.99
70867;HTU21D;58487;53.474;49.470;2023-11-21T05:46:40;0.81;118.99
70867;HTU21D;58487;53.474;49.470;2023-11-21T05:49:09;0.86;118.99
70867;HTU21D;58487;53.474;49.470;2023-11-21T05:51:35;0.88;118.99
70867;HTU21D;58487;53.474;49.470;2023-11-21T05:54:01;0.90;117.18
70867;HTU21D;58487;53.474;49.470;2023-11-21T05:56:27;0.92;94.30
70867;HTU21D;58487;53.474;49.470;2023-11-21T05:58:54;0.90;93.01
70867;HTU21D;58487;53.474;49.470;2023-11-21T06:01:20;0.93;93.11
70867;HTU21D;58487;53.474;49.470;2023-11-21T06:03:46;0.95;93.69
70867;HTU21D;58487;53.474;49.470;2023-11-21T06:06:12;0.96;93.86
70867;HTU21D;58487;53.474;49.470;2023-11-21T06:08:39;1.01;93.55
70867;HTU21D;58487;53.474;49.470;2023-11-21T06:11:05;1.05;94.38
70867;HTU21D;58487;53.474;49.470;2023-11-21T06:13:31;1.06;93.82
70867;HTU21D;58487;53.474;49.470;2023-11-21T06:15:57;1.08;94.14
70867;HTU21D;58487;53.474;49.470;2023-11-21T06:18:24;1.11;93.54
70867;HTU21D;58487;53.474;49.470;2023-11-21T06:20:50;1.12;93.29
70867;HTU21D;58487;53.474;49.470;2023-11-21T06:23:18;1.16;93.19
70867;HTU21D;58487;53.474;49.470;2023-11-21T06:25:44;1.19;93.20
70867;HTU21D;58487;53.474;49.470;2023-11-21T06:28:10;1.19;93.39
70867;HTU21D;58487;53.474;49.470;2023-11-21T06:30:36;1.17;94.21
70867;HTU21D;58487;53.474;49.470;2023-11-21T06:33:04;1.17;99.55
70867;HTU21D;58487;53.474;49.470;2023-11-21T06:35:30;1.11;99.09
70867;HTU21D;58487;53.474;49.470;2023-11-21T06:37:59;1.04;99.95
70867;HTU21D;58487;53.474;49.470;2023-11-21T06:40:25;0.95;104.81
70867;HTU21D;58487;53.474;49.470;2023-11-21T06:42:52;0.89;95.76
70867;HTU21D;58487;53.474;49.470;2023-11-21T06:45:18;0.86;99.13
70867;HTU21D;58487;53.474;49.470;2023-11-21T06:47:45;0.89;100.74
70867;HTU21D;58487;53.474;49.470;2023-11-21T06:50:12;0.92;95.75
70867;HTU21D;58487;53.474;49.470;2023-11-21T06:52:38;0.94;96.92
70867;HTU21D;58487;53.474;49.470;2023-11-21T06:55:04;0.98;98.13
70867;HTU21D;58487;53.474;49.470;2023-11-21T06:57:31;1.05;94.81
70867;HTU21D;58487;53.474;49.470;2023-11-21T06:59:58;0.99;104.17
70867;HTU21D;58487;53.474;49.470;2023-11-21T07:02:24;0.98;93.86
70867;HTU21D;58487;53.474;49.470;2023-11-21T07:04:50;0.97;96.01
70867;HTU21D;58487;53.474;49.470;2023-11-21T07:07:16;0.99;93.76
70867;HTU21D;58487;53.474;49.470;2023-11-21T07:09:42;1.02;95.46
70867;HTU21D;58487;53.474;49.470;2023-11-21T07:12:08;0.98;103.96
70867;HTU21D;58487;53.474;49.470;2023-11-21T07:14:34;0.92;118.99
70867;HTU21D;58487;53.474;49.470;2023-11-21T07:17:00;0.92;118.99
70867;HTU21D;58487;53.474;49.470;2023-11-21T07:19:26;0.98;111.13
70867;HTU21D;58487;53.474;49.470;2023-11-21T07:21:52;0.92;101.19
70867;HTU21D;58487;53.474;49.470;2023-11-21T07:24:18;0.97;97.79
70867;HTU21D;58487;53.474;49.470;2023-11-21T07:26:44;0.92;97.28
70867;HTU21D;58487;53.474;49.470;2023-11-21T07:29:10;0.86;104.07
70867;HTU21D;58487;53.474;49.470;2023-11-21T07:31:37;0.89;104.12
70867;HTU21D;58487;53.474;49.470;2023-11-21T07:34:04;0.83;100.61
70867;HTU21D;58487;53.474;49.470;2023-11-21T07:36:30;0.82;101.48
70867;HTU21D;58487;53.474;49.470;2023-11-21T07:38:56;0.82;104.30
70867;HTU21D;58487;53.474;49.470;2023-11-21T07:41:22;0.80;100.41
70867;HTU21D;58487;53.474;49.470;2023-11-21T07:43:48;0.80;118.99
70867;HTU21D;58487;53.474;49.470;2023-11-21T07:46:14;0.92;116.32
70867;HTU21D;58487;53.474;49.470;2023-11-21T07:48:41;0.89;118.99
70867;HTU21D;58487;53.474;49.470;2023-11-21T07:51:08;0.92;118.99
70867;HTU21D;58487;53.474;49.470;2023-11-21T07:53:35;0.91;118.99
70867;HTU21D;58487;53.474;49.470;2023-11-21T07:56:06;0.89;118.99
70867;HTU21D;58487;53.474;49.470;2023-11-21T07:58:34;0.92;118.99
70867;HTU21D;58487;53.474;49.470;2023-11-21T08:01:00;0.96;118.99
70867;HTU21D;58487;53.474;49.470;2023-11-21T08:03:26;0.98;118.99
70867;HTU21D;58487;53.474;49.470;2023-11-21T08:05:52;1.03;118.99
70867;HTU21D;58487;53.474;49.470;2023-11-21T08:08:18;1.07;118.99
70867;HTU21D;58487;53.474;49.470;2023-11-21T08:10:45;1.17;118.99
70867;HTU21D;58487;53.474;49.470;2023-11-21T08:13:14;1.14;118.99
70867;HTU21D;58487;53.474;49.470;2023-11-21T08:15:42;1.19;118.99
70867;HTU21D;58487;53.474;49.470;2023-11-21T08:18:12;1.05;118.99
70867;HTU21D;58487;53.474;49.470;2023-11-21T08:20:40;1.08;118.99
70867;HTU21D;58487;53.474;49.470;2023-11-21T08:23:06;1.05;118.99
70867;HTU21D;58487;53.474;49.470;2023-11-21T08:25:32;1.08;118.99
70867;HTU21D;58487;53.474;49.470;2023-11-21T08:28:00;1.09;118.99
70867;HTU21D;58487;53.474;49.470;2023-11-21T08:30:27;1.14;118.99
70867;HTU21D;58487;53.474;49.470;2023-11-21T08:32:56;1.16;118.99
70867;HTU21D;58487;53.474;49.470;2023-11-21T08:35:24;1.18;118.99
70867;HTU21D;58487;53.474;49.470;2023-11-21T08:37:53;1.12;118.99
70867;HTU21D;58487;53.474;49.470;2023-11-21T08:40:19;1.09;118.99
70867;HTU21D;58487;53.474;49.470;2023-11-21T08:42:47;1.04;118.99
70867;HTU21D;58487;53.474;49.470;2023-11-21T08:45:15;0.98;118.99
70867;HTU21D;58487;53.474;49.470;2023-11-21T08:47:43;1.01;118.99
70867;HTU21D;58487;53.474;49.470;2023-11-21T08:50:13;1.09;118.99
70867;HTU21D;58487;53.474;49.470;2023-11-21T08:52:41;1.06;118.99
70867;HTU21D;58487;53.474;49.470;2023-11-21T08:55:08;1.12;118.99
70867;HTU21D;58487;53.474;49.470;2023-11-21T08:57:42;1.13;118.99
70867;HTU21D;58487;53.474;49.470;2023-11-21T09:00:09;1.09;118.99
70867;HTU21D;58487;53.474;49.470;2023-11-21T09:02:41;1.06;118.99
70867;HTU21D;58487;53.474;49.470;2023-11-21T09:05:08;1.11;118.99
70867;HTU21D;58487;53.474;49.470;2023-11-21T09:07:35;1.21;118.99
70867;HTU21D;58487;53.474;49.470;2023-11-21T09:10:03;1.24;118.99
70867;HTU21D;58487;53.474;49.470;2023-11-21T09:12:29;1.25;118.99
70867;HTU21D;58487;53.474;49.470;2023-11-21T09:14:55;1.32;118.99
70867;HTU21D;58487;53.474;49.470;2023-11-21T09:17:21;1.23;118.99
70867;HTU21D;58487;53.474;49.470;2023-11-21T09:19:47;1.22;118.99
70867;HTU21D;58487;53.474;49.470;2023-11-21T09:22:16;1.28;118.99
70867;HTU21D;58487;53.474;49.470;2023-11-21T09:24:42;1.31;118.99
70867;HTU21D;58487;53.474;49.470;2023-11-21T09:27:09;1.27;118.99
70867;HTU21D;58487;53.474;49.470;2023-11-21T09:29:35;1.24;118.99
70867;HTU21D;58487;53.474;49.470;2023-11-21T09:32:06;1.23;118.99
70867;HTU21D;58487;53.474;49.470;2023-11-21T09:34:39;1.22;118.99
70867;HTU21D;58487;53.474;49.470;2023-11-21T09:37:06;1.24;118.99
70867;HTU21D;58487;53.474;49.470;2023-11-21T09:39:33;1.21;118.99
70867;HTU21D;58487;53.474;49.470;2023-11-21T09:44:48;1.19;118.99
70867;HTU21D;58487;53.474;49.470;2023-11-21T09:47:17;1.14;118.99
70867;HTU21D;58487;53.474;49.470;2023-11-21T09:49:47;1.13;118.99
70867;HTU21D;58487;53.474;49.470;2023-11-21T09:52:28;1.13;118.99
70867;HTU21D;58487;53.474;49.470;2023-11-21T09:54:55;1.13;118.99
70867;HTU21D;58487;53.474;49.470;2023-11-21T09:57:27;1.24;118.99
70867;HTU21D;58487;53.474;49.470;2023-11-21T09:59:54;1.21;118.99
70867;HTU21D;58487;53.474;49.470;2023-11-21T10:02:28;1.27;118.99
70867;HTU21D;58487;53.474;49.470;2023-11-21T10:04:59;1.20;118.99
70867;HTU21D;58487;53.474;49.470;2023-11-21T10:07:26;1.19;118.99
70867;HTU21D;58487;53.474;49.470;2023-11-21T10:09:53;1.14;118.99
70867;HTU21D;58487;53.474;49.470;2023-11-21T10:12:19;1.07;118.99
70867;HTU21D;58487;53.474;49.470;2023-11-21T10:14:48;1.04;118.99
70867;HTU21D;58487;53.474;49.470;2023-11-21T10:17:16;1.04;118.99
70867;HTU21D;58487;53.474;49.470;2023-11-21T10:19:46;1.05;118.99
70867;HTU21D;58487;53.474;49.470;2023-11-21T10:22:16;1.01;118.99
70867;HTU21D;58487;53.474;49.470;2023-11-21T10:24:43;1.06;118.99
70867;HTU21D;58487;53.474;49.470;2023-11-21T10:27:09;0.95;118.99
70867;HTU21D;58487;53.474;49.470;2023-11-21T10:29:35;1.03;118.99
70867;HTU21D;58487;53.474;49.470;2023-11-21T10:32:04;1.01;118.99
70867;HTU21D;58487;53.474;49.470;2023-11-21T10:34:31;1.03;118.99
70867;HTU21D;58487;53.474;49.470;2023-11-21T10:36:57;1.04;118.99
70867;HTU21D;58487;53.474;49.470;2023-11-21T10:39:24;0.92;118.99
70867;HTU21D;58487;53.474;49.470;2023-11-21T10:41:56;0.97;118.99
70867;HTU21D;58487;53.474;49.470;2023-11-21T10:44:22;0.93;118.99
70867;HTU21D;58487;53.474;49.470;2023-11-21T10:46:51;0.99;118.99
70867;HTU21D;58487;53.474;49.470;2023-11-21T10:49:18;1.01;118.99
70867;HTU21D;58487;53.474;49.470;2023-11-21T10:51:45;1.11;118.99
70867;HTU21D;58487;53.474;49.470;2023-11-21T10:54:11;1.12;118.99
70867;HTU21D;58487;53.474;49.470;2023-11-21T10:56:39;1.12;118.99
70867;HTU21D;58487;53.474;49.470;2023-11-21T10:59:15;1.04;118.99
70867;HTU21D;58487;53.474;49.470;2023-11-21T11:01:45;0.99;118.99
70867;HTU21D;58487;53.474;49.470;2023-11-21T11:04:12;1.07;118.99
70867;HTU21D;58487;53.474;49.470;2023-11-21T11:06:55;1.04;118.99
70867;HTU21D;58487;53.474;49.470;2023-11-21T11:09:23;1.06;118.99
70867;HTU21D;58487;53.474;49.470;2023-11-21T11:11:51;1.01;118.99
70867;HTU21D;58487;53.474;49.470;2023-11-21T11:14:17;0.99;118.99
70867;HTU21D;58487;53.474;49.470;2023-11-21T11:16:45;1.01;118.99
70867;HTU21D;58487;53.474;49.470;2023-11-21T11:19:11;0.91;118.99
70867;HTU21D;58487;53.474;49.470;2023-11-21T11:32:55;0.84;118.99
70867;HTU21D;58487;53.474;49.470;2023-11-21T11:35:34;0.88;118.99
70867;HTU21D;58487;53.474;49.470;2023-11-21T11:38:04;0.84;118.99
70867;HTU21D;58487;53.474;49.470;2023-11-21T11:40:40;0.91;118.99
70867;HTU21D;58487;53.474;49.470;2023-11-21T11:43:06;0.83;118.99
70867;HTU21D;58487;53.474;49.470;2023-11-21T11:45:34;0.87;118.99
70867;HTU21D;58487;53.474;49.470;2023-11-21T11:48:01;0.90;118.99
70867;HTU21D;58487;53.474;49.470;2023-11-21T11:50:29;0.82;118.99
70867;HTU21D;58487;53.474;49.470;2023-11-21T11:53:14;0.81;118.99
70867;HTU21D;58487;53.474;49.470;2023-11-21T11:55:41;0.77;118.99
70867;HTU21D;58487;53.474;49.470;2023-11-21T11:58:07;0.74;118.99
70867;HTU21D;58487;53.474;49.470;2023-11-21T12:00:34;0.69;118.99
70867;HTU21D;58487;53.474;49.470;2023-11-21T12:03:04;0.67;118.99
70867;HTU21D;58487;53.474;49.470;2023-11-21T12:05:32;0.73;118.99
70867;HTU21D;58487;53.474;49.470;2023-11-21T12:08:03;0.64;118.99
70867;HTU21D;58487;53.474;49.470;2023-11-21T12:10:31;0.66;118.99
70867;HTU21D;58487;53.474;49.470;2023-11-21T12:12:59;0.76;118.99
70867;HTU21D;58487;53.474;49.470;2023-11-21T12:15:25;0.69;118.99
70867;HTU21D;58487;53.474;49.470;2023-11-21T12:17:52;0.58;118.99
70867;HTU21D;58487;53.474;49.470;2023-11-21T12:20:20;0.71;118.99
70867;HTU21D;58487;53.474;49.470;2023-11-21T12:22:51;0.64;118.99
70867;HTU21D;58487;53.474;49.470;2023-11-21T12:25:18;0.59;118.99
70867;HTU21D;58487;53.474;49.470;2023-11-21T12:27:52;0.54;118.99
70867;HTU21D;58487;53.474;49.470;2023-11-21T12:30:20;0.44;118.99
70867;HTU21D;58487;53.474;49.470;2023-11-21T12:32:55;0.43;118.99
70867;HTU21D;58487;53.474;49.470;2023-11-21T12:35:26;0.36;118.99
70867;HTU21D;58487;53.474;49.470;2023-11-21T12:37:54;0.47;118.99
70867;HTU21D;58487;53.474;49.470;2023-11-21T12:40:21;0.48;118.99
70867;HTU21D;58487;53.474;49.470;2023-11-21T12:42:51;0.43;118.99
70867;HTU21D;58487;53.474;49.470;2023-11-21T12:45:19;0.42;118.99
70867;HTU21D;58487;53.474;49.470;2023-11-21T12:47:50;0.31;118.99
70867;HTU21D;58487;53.474;49.470;2023-11-21T12:50:24;0.32;118.99
70867;HTU21D;58487;53.474;49.470;2023-11-21T12:52:58;0.25;118.99
70867;HTU21D;58487;53.474;49.470;2023-11-21T12:55:24;0.36;118.99
70867;HTU21D;58487;53.474;49.470;2023-11-21T12:57:53;0.40;118.99
70867;HTU21D;58487;53.474;49.470;2023-11-21T13:00:33;0.34;118.99
70867;HTU21D;58487;53.474;49.470;2023-11-21T13:03:04;0.43;118.99
70867;HTU21D;58487;53.474;49.470;2023-11-21T13:05:35;0.32;118.99
70867;HTU21D;58487;53.474;49.470;2023-11-21T13:08:05;0.33;118.99
70867;HTU21D;58487;53.474;49.470;2023-11-21T13:10:39;0.39;118.99
70867;HTU21D;58487;53.474;49.470;2023-11-21T13:13:06;0.43;118.99
70867;HTU21D;58487;53.474;49.470;2023-11-21T13:15:40;0.33;118.99
70867;HTU21D;58487;53.474;49.470;2023-11-21T13:18:09;0.25;118.99
70867;HTU21D;58487;53.474;49.470;2023-11-21T13:20:37;0.32;118.99
70867;HTU21D;58487;53.474;49.470;2023-11-21T13:23:07;0.25;118.99
70867;HTU21D;58487;53.474;49.470;2023-11-21T13:25:34;0.21;118.99
70867;HTU21D;58487;53.474;49.470;2023-11-21T13:28:02;0.28;118.99
70867;HTU21D;58487;53.474;49.470;2023-11-21T13:30:28;0.31;118.99
70867;HTU21D;58487;53.474;49.470;2023-11-21T13:33:04;0.19;118.99
70867;HTU21D;58487;53.474;49.470;2023-11-21T13:35:37;0.18;118.99
70867;HTU21D;58487;53.474;49.470;2023-11-21T13:38:09;0.24;118.99
70867;HTU21D;58487;53.474;49.470;2023-11-21T13:40:37;0.28;118.99
70867;HTU21D;58487;53.474;49.470;2023-11-21T13:43:09;0.22;118.99
70867;HTU21D;58487;53.474;49.470;2023-11-21T13:45:39;0.32;118.99
70867;HTU21D;58487;53.474;49.470;2023-11-21T13:48:07;0.25;118.99
70867;HTU21D;58487;53.474;49.470;2023-11-21T13:50:37;0.22;118.99
70867;HTU21D;58487;53.474;49.470;2023-11-21T13:53:05;0.23;118.99
70867;HTU21D;58487;53.474;49.470;2023-11-21T13:55:48;0.25;118.99
70867;HTU21D;58487;53.474;49.470;2023-11-21T13:58:16;0.14;118.99
70867;HTU21D;58487;53.474;49.470;2023-11-21T14:00:48;0.23;118.99
70867;HTU21D;58487;53.474;49.470;2023-11-21T14:03:23;0.22;118.99
70867;HTU21D;58487;53.474;49.470;2023-11-21T14:06:04;0.23;118.99
70867;HTU21D;58487;53.474;49.470;2023-11-21T14:08:40;0.21;118.99
70867;HTU21D;58487;53.474;49.470;2023-11-21T14:11:07;0.19;118.99
70867;HTU21D;58487;53.474;49.470;2023-11-21T14:13:35;0.18;118.99
70867;HTU21D;58487;53.474;49.470;2023-11-21T14:16:01;0.30;118.99
70867;HTU21D;58487;53.474;49.470;2023-11-21T14:18:28;0.12;118.99
70867;HTU21D;58487;53.474;49.470;2023-11-21T14:21:07;-0.05;118.99
70867;HTU21D;58487;53.474;49.470;2023-11-21T14:23:36;-0.14;118.99
70867;HTU21D;58487;53.474;49.470;2023-11-21T14:26:04;-0.22;118.99
70867;HTU21D;58487;53.474;49.470;2023-11-21T14:28:32;0.03;118.99
70867;HTU21D;58487;53.474;49.470;2023-11-21T14:31:00;-0.08;118.99
70867;HTU21D;58487;53.474;49.470;2023-11-21T14:33:27;-0.02;118.99
70867;HTU21D;58487;53.474;49.470;2023-11-21T14:35:54;0.05;118.99
70867;HTU21D;58487;53.474;49.470;2023-11-21T14:38:20;0.01;118.99
70867;HTU21D;58487;53.474;49.470;2023-11-21T14:40:55;0.01;118.99
70867;HTU21D;58487;53.474;49.470;2023-11-21T14:43:22;0.02;118.99
70867;HTU21D;58487;53.474;49.470;2023-11-21T14:45:50;-0.08;118.99
70867;HTU21D;58487;53.474;49.470;2023-11-21T14:48:16;-0.02;118.99
70867;HTU21D;58487;53.474;49.470;2023-11-21T14:50:54;-0.05;118.99
70867;HTU21D;58487;53.474;49.470;2023-11-21T14:53:23;-0.16;118.99
70867;HTU21D;58487;53.474;49.470;2023-11-21T14:56:10;-0.13;118.99
70867;HTU21D;58487;53.474;49.470;2023-11-21T14:58:36;0.05;118.99
70867;HTU21D;58487;53.474;49.470;2023-11-21T15:01:04;-0.11;118.99
70867;HTU21D;58487;53.474;49.470;2023-11-21T15:03:31;-0.10;118.99
70867;HTU21D;58487;53.474;49.470;2023-11-21T15:06:03;-0.07;118.99
70867;HTU21D;58487;53.474;49.470;2023-11-21T15:08:53;-0.14;118.99
70867;HTU21D;58487;53.474;49.470;2023-11-21T15:11:35;-0.07;118.99
70867;HTU21D;58487;53.474;49.470;2023-11-21T15:14:04;-0.09;118.99
70867;HTU21D;58487;53.474;49.470;2023-11-21T15:16:35;-0.12;118.99
70867;HTU21D;58487;53.474;49.470;2023-11-21T15:19:12;-0.11;118.99
70867;HTU21D;58487;53.474;49.470;2023-11-21T15:21:46;-0.12;118.99
70867;HTU21D;58487;53.474;49.470;2023-11-21T15:24:13;-0.08;118.99